sensor_id;sensor_type;location;lat;lon;timestamp;pressure;altitude;pressure_sealevel;temperature;humidity
73422;BME280;61637;47.760;-122.022;2024-01-07T00:00:01;100914.42199999999;;;3.7;94.0
73422;BME280;61637;47.760;-122.022;2024-01-07T00:02:01;100914.42199999999;;;3.6;94.0
73422;BME280;61637;47.760;-122.022;2024-01-07T00:04:01;100914.42199999999;;;3.5;95.0
73422;BME280;61637;47.760;-122.022;2024-01-07T00:06:01;100914.42199999999;;;3.4;95.0
73422;BME280;61637;47.760;-122.022;2024-01-07T00:08:01;100914.42199999999;;;3.3;95.0
73422;BME280;61637;47.760;-122.022;2024-01-07T00:10:01;100914.42199999999;;;3.3;95.0
73422;BME280;61637;47.760;-122.022;2024-01-07T00:12:01;100914.42199999999;;;3.2;95.0
73422;BME280;61637;47.760;-122.022;2024-01-07T00:14:01;100914.42199999999;;;3.2;95.0
73422;BME280;61637;47.760;-122.022;2024-01-07T00:16:01;100914.42199999999;;;3.1;95.0
73422;BME280;61637;47.760;-122.022;2024-01-07T00:18:01;100914.42199999999;;;3.1;95.0
73422;BME280;61637;47.760;-122.022;2024-01-07T00:20:01;100914.42199999999;;;2.9;95.0
73422;BME280;61637;47.760;-122.022;2024-01-07T00:22:01;100914.42199999999;;;2.9;95.0
73422;BME280;61637;47.760;-122.022;2024-01-07T00:24:01;100914.42199999999;;;2.8;96.0
73422;BME280;61637;47.760;-122.022;2024-01-07T00:26:01;100914.42199999999;;;2.8;95.0
73422;BME280;61637;47.760;-122.022;2024-01-07T00:28:01;100914.42199999999;;;2.7;95.0
73422;BME280;61637;47.760;-122.022;2024-01-07T00:30:01;100914.42199999999;;;2.6;95.0
73422;BME280;61637;47.760;-122.022;2024-01-07T00:32:01;100914.42199999999;;;2.5;95.0
73422;BME280;61637;47.760;-122.022;2024-01-07T00:34:01;100914.42199999999;;;2.4;96.0
73422;BME280;61637;47.760;-122.022;2024-01-07T00:36:01;100914.42199999999;;;2.4;96.0
73422;BME280;61637;47.760;-122.022;2024-01-07T00:38:01;100914.42199999999;;;2.4;96.0
73422;BME280;61637;47.760;-122.022;2024-01-07T00:40:01;100914.42199999999;;;2.3;96.0
73422;BME280;61637;47.760;-122.022;2024-01-07T00:42:01;100914.42199999999;;;2.3;96.0
73422;BME280;61637;47.760;-122.022;2024-01-07T00:44:01;100914.42199999999;;;2.3;96.0
73422;BME280;61637;47.760;-122.022;2024-01-07T00:46:01;100914.42199999999;;;2.3;96.0
73422;BME280;61637;47.760;-122.022;2024-01-07T00:48:01;100914.42199999999;;;2.2;96.0
73422;BME280;61637;47.760;-122.022;2024-01-07T00:50:01;100914.42199999999;;;2.2;96.0
73422;BME280;61637;47.760;-122.022;2024-01-07T00:52:01;100914.42199999999;;;2.2;96.0
73422;BME280;61637;47.760;-122.022;2024-01-07T00:54:01;100914.42199999999;;;2.1;96.0
73422;BME280;61637;47.760;-122.022;2024-01-07T00:56:01;100914.42199999999;;;2.1;96.0
73422;BME280;61637;47.760;-122.022;2024-01-07T00:58:01;100914.42199999999;;;2.1;96.0
73422;BME280;61637;47.760;-122.022;2024-01-07T01:00:04;100914.42199999999;;;2.1;96.0
73422;BME280;61637;47.760;-122.022;2024-01-07T01:02:01;100914.42199999999;;;2.0;96.0
73422;BME280;61637;47.760;-122.022;2024-01-07T01:04:01;100914.42199999999;;;2.0;96.0
73422;BME280;61637;47.760;-122.022;2024-01-07T01:06:01;100914.42199999999;;;2.0;96.0
73422;BME280;61637;47.760;-122.022;2024-01-07T01:08:01;100914.42199999999;;;2.1;97.0
73422;BME280;61637;47.760;-122.022;2024-01-07T01:10:01;100914.42199999999;;;2.1;97.0
73422;BME280;61637;47.760;-122.022;2024-01-07T01:12:01;100914.42199999999;;;2.1;97.0
73422;BME280;61637;47.760;-122.022;2024-01-07T01:14:01;101253.06099999999;;;2.1;97.0
73422;BME280;61637;47.760;-122.022;2024-01-07T01:16:01;101253.06099999999;;;2.1;97.0
73422;BME280;61637;47.760;-122.022;2024-01-07T01:18:01;101253.06099999999;;;2.1;97.0
73422;BME280;61637;47.760;-122.022;2024-01-07T01:20:01;100914.42199999999;;;2.0;97.0
73422;BME280;61637;47.760;-122.022;2024-01-07T01:22:01;100914.42199999999;;;2.0;97.0
73422;BME280;61637;47.760;-122.022;2024-01-07T01:24:01;100914.42199999999;;;2.0;97.0
73422;BME280;61637;47.760;-122.022;2024-01-07T01:26:01;100914.42199999999;;;2.0;97.0
73422;BME280;61637;47.760;-122.022;2024-01-07T01:28:01;100914.42199999999;;;1.9;97.0
73422;BME280;61637;47.760;-122.022;2024-01-07T01:30:01;100914.42199999999;;;1.9;97.0
73422;BME280;61637;47.760;-122.022;2024-01-07T01:32:01;101253.06099999999;;;1.9;97.0
73422;BME280;61637;47.760;-122.022;2024-01-07T01:34:01;101253.06099999999;;;1.9;97.0
73422;BME280;61637;47.760;-122.022;2024-01-07T01:36:04;101253.06099999999;;;1.8;97.0
73422;BME280;61637;47.760;-122.022;2024-01-07T01:38:01;100914.42199999999;;;1.8;97.0
73422;BME280;61637;47.760;-122.022;2024-01-07T01:40:02;101253.06099999999;;;1.8;97.0
73422;BME280;61637;47.760;-122.022;2024-01-07T01:42:01;101253.06099999999;;;1.8;97.0
73422;BME280;61637;47.760;-122.022;2024-01-07T01:44:01;100914.42199999999;;;1.8;97.0
73422;BME280;61637;47.760;-122.022;2024-01-07T01:46:01;101253.06099999999;;;1.8;97.0
73422;BME280;61637;47.760;-122.022;2024-01-07T01:48:01;101253.06099999999;;;1.7;97.0
73422;BME280;61637;47.760;-122.022;2024-01-07T01:50:01;101253.06099999999;;;1.7;97.0
73422;BME280;61637;47.760;-122.022;2024-01-07T01:52:01;101253.06099999999;;;1.7;97.0
73422;BME280;61637;47.760;-122.022;2024-01-07T01:54:01;101253.06099999999;;;1.7;97.0
73422;BME280;61637;47.760;-122.022;2024-01-07T01:56:01;101253.06099999999;;;1.6;97.0
73422;BME280;61637;47.760;-122.022;2024-01-07T01:58:01;101253.06099999999;;;1.5;97.0
73422;BME280;61637;47.760;-122.022;2024-01-07T02:00:01;100914.42199999999;;;1.4;97.0
73422;BME280;61637;47.760;-122.022;2024-01-07T02:02:01;101253.06099999999;;;1.4;97.0
73422;BME280;61637;47.760;-122.022;2024-01-07T02:04:01;101253.06099999999;;;1.4;97.0
73422;BME280;61637;47.760;-122.022;2024-01-07T02:06:01;101253.06099999999;;;1.4;97.0
73422;BME280;61637;47.760;-122.022;2024-01-07T02:08:01;101253.06099999999;;;1.4;97.0
73422;BME280;61637;47.760;-122.022;2024-01-07T02:10:01;101253.06099999999;;;1.4;97.0
73422;BME280;61637;47.760;-122.022;2024-01-07T02:12:01;101253.06099999999;;;1.4;97.0
73422;BME280;61637;47.760;-122.022;2024-01-07T02:14:01;101253.06099999999;;;1.4;97.0
73422;BME280;61637;47.760;-122.022;2024-01-07T02:16:01;101253.06099999999;;;1.3;97.0
73422;BME280;61637;47.760;-122.022;2024-01-07T02:18:01;101253.06099999999;;;1.3;97.0
73422;BME280;61637;47.760;-122.022;2024-01-07T02:20:01;101253.06099999999;;;1.4;97.0
73422;BME280;61637;47.760;-122.022;2024-01-07T02:22:01;101253.06099999999;;;1.4;97.0
73422;BME280;61637;47.760;-122.022;2024-01-07T02:24:03;101253.06099999999;;;1.4;97.0
73422;BME280;61637;47.760;-122.022;2024-01-07T02:26:01;101253.06099999999;;;1.4;97.0
73422;BME280;61637;47.760;-122.022;2024-01-07T02:28:02;101253.06099999999;;;1.3;97.0
73422;BME280;61637;47.760;-122.022;2024-01-07T02:30:01;101253.06099999999;;;1.3;97.0
73422;BME280;61637;47.760;-122.022;2024-01-07T02:32:01;101253.06099999999;;;1.3;97.0
73422;BME280;61637;47.760;-122.022;2024-01-07T02:34:01;101253.06099999999;;;1.3;97.0
73422;BME280;61637;47.760;-122.022;2024-01-07T02:36:01;101253.06099999999;;;1.2;97.0
73422;BME280;61637;47.760;-122.022;2024-01-07T02:38:01;101253.06099999999;;;1.2;97.0
73422;BME280;61637;47.760;-122.022;2024-01-07T02:40:01;101253.06099999999;;;1.2;97.0
73422;BME280;61637;47.760;-122.022;2024-01-07T02:42:01;101253.06099999999;;;1.1;97.0
73422;BME280;61637;47.760;-122.022;2024-01-07T02:44:01;101253.06099999999;;;1.1;97.0
73422;BME280;61637;47.760;-122.022;2024-01-07T02:46:01;101253.06099999999;;;1.1;97.0
73422;BME280;61637;47.760;-122.022;2024-01-07T02:48:01;101253.06099999999;;;1.2;97.0
73422;BME280;61637;47.760;-122.022;2024-01-07T02:50:01;101253.06099999999;;;1.1;97.0
73422;BME280;61637;47.760;-122.022;2024-01-07T02:52:01;101253.06099999999;;;1.2;98.0
73422;BME280;61637;47.760;-122.022;2024-01-07T02:54:01;101253.06099999999;;;1.2;98.0
73422;BME280;61637;47.760;-122.022;2024-01-07T02:56:01;101253.06099999999;;;1.2;98.0
73422;BME280;61637;47.760;-122.022;2024-01-07T02:58:01;101253.06099999999;;;1.2;98.0
73422;BME280;61637;47.760;-122.022;2024-01-07T03:00:01;101253.06099999999;;;1.3;98.0
73422;BME280;61637;47.760;-122.022;2024-01-07T03:02:01;101253.06099999999;;;1.2;98.0
73422;BME280;61637;47.760;-122.022;2024-01-07T03:04:01;101253.06099999999;;;1.3;98.0
73422;BME280;61637;47.760;-122.022;2024-01-07T03:06:01;101253.06099999999;;;1.3;98.0
73422;BME280;61637;47.760;-122.022;2024-01-07T03:08:01;101253.06099999999;;;1.3;98.0
73422;BME280;61637;47.760;-122.022;2024-01-07T03:10:01;101253.06099999999;;;1.3;98.0
73422;BME280;61637;47.760;-122.022;2024-01-07T03:12:01;101253.06099999999;;;1.3;98.0
73422;BME280;61637;47.760;-122.022;2024-01-07T03:14:01;101253.06099999999;;;1.3;98.0
73422;BME280;61637;47.760;-122.022;2024-01-07T03:16:01;101253.06099999999;;;1.3;98.0
73422;BME280;61637;47.760;-122.022;2024-01-07T03:18:01;101253.06099999999;;;1.3;98.0
73422;BME280;61637;47.760;-122.022;2024-01-07T03:20:01;101253.06099999999;;;1.3;98.0
73422;BME280;61637;47.760;-122.022;2024-01-07T03:22:01;101253.06099999999;;;1.3;98.0
73422;BME280;61637;47.760;-122.022;2024-01-07T03:24:01;101253.06099999999;;;1.3;98.0
73422;BME280;61637;47.760;-122.022;2024-01-07T03:26:01;101253.06099999999;;;1.4;98.0
73422;BME280;61637;47.760;-122.022;2024-01-07T03:28:01;101253.06099999999;;;1.4;98.0
73422;BME280;61637;47.760;-122.022;2024-01-07T03:30:01;101253.06099999999;;;1.4;98.0
73422;BME280;61637;47.760;-122.022;2024-01-07T03:32:01;101253.06099999999;;;1.4;98.0
73422;BME280;61637;47.760;-122.022;2024-01-07T03:34:01;101253.06099999999;;;1.4;98.0
73422;BME280;61637;47.760;-122.022;2024-01-07T03:36:01;101253.06099999999;;;1.4;98.0
73422;BME280;61637;47.760;-122.022;2024-01-07T03:38:01;101253.06099999999;;;1.5;98.0
73422;BME280;61637;47.760;-122.022;2024-01-07T03:40:01;101253.06099999999;;;1.5;98.0
73422;BME280;61637;47.760;-122.022;2024-01-07T03:42:01;101253.06099999999;;;1.5;98.0
73422;BME280;61637;47.760;-122.022;2024-01-07T03:44:01;101253.06099999999;;;1.5;98.0
73422;BME280;61637;47.760;-122.022;2024-01-07T03:46:01;101253.06099999999;;;1.5;98.0
73422;BME280;61637;47.760;-122.022;2024-01-07T03:48:01;101253.06099999999;;;1.6;98.0
73422;BME280;61637;47.760;-122.022;2024-01-07T03:50:01;101253.06099999999;;;1.6;98.0
73422;BME280;61637;47.760;-122.022;2024-01-07T03:52:01;101253.06099999999;;;1.6;98.0
73422;BME280;61637;47.760;-122.022;2024-01-07T03:54:01;101253.06099999999;;;1.6;98.0
73422;BME280;61637;47.760;-122.022;2024-01-07T03:56:01;101253.06099999999;;;1.6;98.0
73422;BME280;61637;47.760;-122.022;2024-01-07T03:58:01;101253.06099999999;;;1.6;98.0
73422;BME280;61637;47.760;-122.022;2024-01-07T04:00:01;101253.06099999999;;;1.6;98.0
73422;BME280;61637;47.760;-122.022;2024-01-07T04:02:01;101253.06099999999;;;1.6;98.0
73422;BME280;61637;47.760;-122.022;2024-01-07T04:04:01;101253.06099999999;;;1.6;98.0
73422;BME280;61637;47.760;-122.022;2024-01-07T04:06:01;101253.06099999999;;;1.6;98.0
73422;BME280;61637;47.760;-122.022;2024-01-07T04:08:01;101253.06099999999;;;1.7;98.0
73422;BME280;61637;47.760;-122.022;2024-01-07T04:10:01;101253.06099999999;;;1.7;98.0
73422;BME280;61637;47.760;-122.022;2024-01-07T04:12:01;101253.06099999999;;;1.7;98.0
73422;BME280;61637;47.760;-122.022;2024-01-07T04:14:01;101253.06099999999;;;1.7;98.0
73422;BME280;61637;47.760;-122.022;2024-01-07T04:16:01;101253.06099999999;;;1.7;98.0
73422;BME280;61637;47.760;-122.022;2024-01-07T04:18:01;101253.06099999999;;;1.7;98.0
73422;BME280;61637;47.760;-122.022;2024-01-07T04:20:01;101253.06099999999;;;1.7;98.0
73422;BME280;61637;47.760;-122.022;2024-01-07T04:22:01;101253.06099999999;;;1.7;98.0
73422;BME280;61637;47.760;-122.022;2024-01-07T04:24:01;101253.06099999999;;;1.7;98.0
73422;BME280;61637;47.760;-122.022;2024-01-07T04:26:01;101253.06099999999;;;1.7;98.0
73422;BME280;61637;47.760;-122.022;2024-01-07T04:28:01;101253.06099999999;;;1.7;98.0
73422;BME280;61637;47.760;-122.022;2024-01-07T04:30:01;101253.06099999999;;;1.6;98.0
73422;BME280;61637;47.760;-122.022;2024-01-07T04:32:01;101253.06099999999;;;1.6;98.0
73422;BME280;61637;47.760;-122.022;2024-01-07T04:34:01;101253.06099999999;;;1.6;98.0
73422;BME280;61637;47.760;-122.022;2024-01-07T04:36:01;101253.06099999999;;;1.6;98.0
73422;BME280;61637;47.760;-122.022;2024-01-07T04:38:01;101253.06099999999;;;1.6;98.0
73422;BME280;61637;47.760;-122.022;2024-01-07T04:40:01;101253.06099999999;;;1.6;98.0
73422;BME280;61637;47.760;-122.022;2024-01-07T04:42:01;101253.06099999999;;;1.6;98.0
73422;BME280;61637;47.760;-122.022;2024-01-07T04:44:01;101253.06099999999;;;1.5;98.0
73422;BME280;61637;47.760;-122.022;2024-01-07T04:46:01;101253.06099999999;;;1.6;98.0
73422;BME280;61637;47.760;-122.022;2024-01-07T04:48:01;101253.06099999999;;;1.6;98.0
73422;BME280;61637;47.760;-122.022;2024-01-07T04:50:01;101253.06099999999;;;1.6;98.0
73422;BME280;61637;47.760;-122.022;2024-01-07T04:52:01;101253.06099999999;;;1.5;98.0
73422;BME280;61637;47.760;-122.022;2024-01-07T04:54:01;101253.06099999999;;;1.5;98.0
73422;BME280;61637;47.760;-122.022;2024-01-07T04:56:01;101253.06099999999;;;1.4;98.0
73422;BME280;61637;47.760;-122.022;2024-01-07T04:58:01;101253.06099999999;;;1.4;98.0
73422;BME280;61637;47.760;-122.022;2024-01-07T05:00:01;101253.06099999999;;;1.4;98.0
73422;BME280;61637;47.760;-122.022;2024-01-07T05:02:01;101253.06099999999;;;1.4;98.0
73422;BME280;61637;47.760;-122.022;2024-01-07T05:04:01;101253.06099999999;;;1.4;98.0
73422;BME280;61637;47.760;-122.022;2024-01-07T05:06:01;101253.06099999999;;;1.4;98.0
73422;BME280;61637;47.760;-122.022;2024-01-07T05:08:01;101253.06099999999;;;1.4;98.0
73422;BME280;61637;47.760;-122.022;2024-01-07T05:10:01;101253.06099999999;;;1.4;98.0
73422;BME280;61637;47.760;-122.022;2024-01-07T05:12:01;101253.06099999999;;;1.4;98.0
73422;BME280;61637;47.760;-122.022;2024-01-07T05:14:01;101253.06099999999;;;1.4;98.0
73422;BME280;61637;47.760;-122.022;2024-01-07T05:16:01;101253.06099999999;;;1.4;98.0
73422;BME280;61637;47.760;-122.022;2024-01-07T05:18:01;101253.06099999999;;;1.4;98.0
73422;BME280;61637;47.760;-122.022;2024-01-07T05:20:01;101253.06099999999;;;1.4;98.0
73422;BME280;61637;47.760;-122.022;2024-01-07T05:22:01;101253.06099999999;;;1.4;98.0
73422;BME280;61637;47.760;-122.022;2024-01-07T05:24:01;101253.06099999999;;;1.4;98.0
73422;BME280;61637;47.760;-122.022;2024-01-07T05:26:01;101253.06099999999;;;1.4;98.0
73422;BME280;61637;47.760;-122.022;2024-01-07T05:28:01;101253.06099999999;;;1.4;98.0
73422;BME280;61637;47.760;-122.022;2024-01-07T05:30:01;101253.06099999999;;;1.4;98.0
73422;BME280;61637;47.760;-122.022;2024-01-07T05:32:01;101253.06099999999;;;1.4;98.0
73422;BME280;61637;47.760;-122.022;2024-01-07T05:34:01;101253.06099999999;;;1.4;98.0
73422;BME280;61637;47.760;-122.022;2024-01-07T05:36:01;101253.06099999999;;;1.4;98.0
73422;BME280;61637;47.760;-122.022;2024-01-07T05:38:01;101253.06099999999;;;1.4;98.0
73422;BME280;61637;47.760;-122.022;2024-01-07T05:40:01;101253.06099999999;;;1.4;98.0
73422;BME280;61637;47.760;-122.022;2024-01-07T05:42:01;101253.06099999999;;;1.5;98.0
73422;BME280;61637;47.760;-122.022;2024-01-07T05:44:01;101253.06099999999;;;1.5;98.0
73422;BME280;61637;47.760;-122.022;2024-01-07T05:46:01;101253.06099999999;;;1.5;98.0
73422;BME280;61637;47.760;-122.022;2024-01-07T05:48:01;101253.06099999999;;;1.5;98.0
73422;BME280;61637;47.760;-122.022;2024-01-07T05:50:01;101253.06099999999;;;1.5;98.0
73422;BME280;61637;47.760;-122.022;2024-01-07T05:52:01;101253.06099999999;;;1.5;98.0
73422;BME280;61637;47.760;-122.022;2024-01-07T05:54:01;101253.06099999999;;;1.5;98.0
73422;BME280;61637;47.760;-122.022;2024-01-07T05:56:01;101253.06099999999;;;1.4;98.0
73422;BME280;61637;47.760;-122.022;2024-01-07T05:58:01;101253.06099999999;;;1.4;98.0
73422;BME280;61637;47.760;-122.022;2024-01-07T06:00:01;101253.06099999999;;;1.4;98.0
73422;BME280;61637;47.760;-122.022;2024-01-07T06:02:01;101253.06099999999;;;1.4;98.0
73422;BME280;61637;47.760;-122.022;2024-01-07T06:04:01;101253.06099999999;;;1.4;98.0
73422;BME280;61637;47.760;-122.022;2024-01-07T06:06:01;101253.06099999999;;;1.4;98.0
73422;BME280;61637;47.760;-122.022;2024-01-07T06:08:01;101253.06099999999;;;1.4;98.0
73422;BME280;61637;47.760;-122.022;2024-01-07T06:10:01;101253.06099999999;;;1.3;98.0
73422;BME280;61637;47.760;-122.022;2024-01-07T06:12:01;101253.06099999999;;;1.4;98.0
73422;BME280;61637;47.760;-122.022;2024-01-07T06:14:01;101253.06099999999;;;1.4;98.0
73422;BME280;61637;47.760;-122.022;2024-01-07T06:16:01;101253.06099999999;;;1.4;98.0
73422;BME280;61637;47.760;-122.022;2024-01-07T06:18:01;101253.06099999999;;;1.4;98.0
73422;BME280;61637;47.760;-122.022;2024-01-07T06:20:01;101253.06099999999;;;1.4;98.0
73422;BME280;61637;47.760;-122.022;2024-01-07T06:22:01;101253.06099999999;;;1.4;98.0
73422;BME280;61637;47.760;-122.022;2024-01-07T06:24:01;101253.06099999999;;;1.3;98.0
73422;BME280;61637;47.760;-122.022;2024-01-07T06:26:03;101253.06099999999;;;1.3;98.0
73422;BME280;61637;47.760;-122.022;2024-01-07T06:28:01;101253.06099999999;;;1.3;98.0
73422;BME280;61637;47.760;-122.022;2024-01-07T06:30:01;101253.06099999999;;;1.3;98.0
73422;BME280;61637;47.760;-122.022;2024-01-07T06:32:01;101253.06099999999;;;1.3;98.0
73422;BME280;61637;47.760;-122.022;2024-01-07T06:34:01;101253.06099999999;;;1.3;98.0
73422;BME280;61637;47.760;-122.022;2024-01-07T06:36:01;101253.06099999999;;;1.4;98.0
73422;BME280;61637;47.760;-122.022;2024-01-07T06:38:01;101253.06099999999;;;1.3;98.0
73422;BME280;61637;47.760;-122.022;2024-01-07T06:40:01;101253.06099999999;;;1.3;98.0
73422;BME280;61637;47.760;-122.022;2024-01-07T06:42:01;101253.06099999999;;;1.3;98.0
73422;BME280;61637;47.760;-122.022;2024-01-07T06:44:01;101253.06099999999;;;1.4;98.0
73422;BME280;61637;47.760;-122.022;2024-01-07T06:46:01;101253.06099999999;;;1.3;98.0
73422;BME280;61637;47.760;-122.022;2024-01-07T06:48:01;101253.06099999999;;;1.3;98.0
73422;BME280;61637;47.760;-122.022;2024-01-07T06:50:01;101253.06099999999;;;1.4;98.0
73422;BME280;61637;47.760;-122.022;2024-01-07T06:52:01;101253.06099999999;;;1.3;98.0
73422;BME280;61637;47.760;-122.022;2024-01-07T06:54:01;101253.06099999999;;;1.4;98.0
73422;BME280;61637;47.760;-122.022;2024-01-07T06:56:01;101253.06099999999;;;1.3;98.0
73422;BME280;61637;47.760;-122.022;2024-01-07T06:58:01;101253.06099999999;;;1.3;98.0
73422;BME280;61637;47.760;-122.022;2024-01-07T07:00:01;101253.06099999999;;;1.3;98.0
73422;BME280;61637;47.760;-122.022;2024-01-07T07:02:01;101253.06099999999;;;1.3;98.0
73422;BME280;61637;47.760;-122.022;2024-01-07T07:04:01;101253.06099999999;;;1.3;98.0
73422;BME280;61637;47.760;-122.022;2024-01-07T07:06:01;101253.06099999999;;;1.3;98.0
73422;BME280;61637;47.760;-122.022;2024-01-07T07:08:01;101253.06099999999;;;1.3;98.0
73422;BME280;61637;47.760;-122.022;2024-01-07T07:10:01;101253.06099999999;;;1.3;98.0
73422;BME280;61637;47.760;-122.022;2024-01-07T07:12:01;101253.06099999999;;;1.3;98.0
73422;BME280;61637;47.760;-122.022;2024-01-07T07:14:01;101253.06099999999;;;1.3;98.0
73422;BME280;61637;47.760;-122.022;2024-01-07T07:16:01;101253.06099999999;;;1.3;98.0
73422;BME280;61637;47.760;-122.022;2024-01-07T07:18:01;101253.06099999999;;;1.3;98.0
73422;BME280;61637;47.760;-122.022;2024-01-07T07:20:01;101253.06099999999;;;1.4;98.0
73422;BME280;61637;47.760;-122.022;2024-01-07T07:22:01;101253.06099999999;;;1.4;98.0
73422;BME280;61637;47.760;-122.022;2024-01-07T07:24:01;101253.06099999999;;;1.4;98.0
73422;BME280;61637;47.760;-122.022;2024-01-07T07:26:01;101591.7;;;1.4;98.0
73422;BME280;61637;47.760;-122.022;2024-01-07T07:28:01;101591.7;;;1.4;98.0
73422;BME280;61637;47.760;-122.022;2024-01-07T07:30:01;101591.7;;;1.5;98.0
73422;BME280;61637;47.760;-122.022;2024-01-07T07:32:01;101591.7;;;1.5;99.0
73422;BME280;61637;47.760;-122.022;2024-01-07T07:34:01;101591.7;;;1.4;99.0
73422;BME280;61637;47.760;-122.022;2024-01-07T07:36:01;101591.7;;;1.5;99.0
73422;BME280;61637;47.760;-122.022;2024-01-07T07:38:01;101591.7;;;1.5;98.0
73422;BME280;61637;47.760;-122.022;2024-01-07T07:40:01;101591.7;;;1.5;99.0
73422;BME280;61637;47.760;-122.022;2024-01-07T07:42:01;101591.7;;;1.5;98.0
73422;BME280;61637;47.760;-122.022;2024-01-07T07:44:01;101591.7;;;1.5;99.0
73422;BME280;61637;47.760;-122.022;2024-01-07T07:46:01;101591.7;;;1.5;98.0
73422;BME280;61637;47.760;-122.022;2024-01-07T07:48:01;101591.7;;;1.5;98.0
73422;BME280;61637;47.760;-122.022;2024-01-07T07:50:01;101591.7;;;1.6;98.0
73422;BME280;61637;47.760;-122.022;2024-01-07T07:52:01;101591.7;;;1.6;98.0
73422;BME280;61637;47.760;-122.022;2024-01-07T07:54:01;101591.7;;;1.5;99.0
73422;BME280;61637;47.760;-122.022;2024-01-07T07:56:01;101591.7;;;1.6;99.0
73422;BME280;61637;47.760;-122.022;2024-01-07T07:58:01;101591.7;;;1.6;98.0
73422;BME280;61637;47.760;-122.022;2024-01-07T08:00:01;101591.7;;;1.5;98.0
73422;BME280;61637;47.760;-122.022;2024-01-07T08:02:01;101591.7;;;1.6;98.0
73422;BME280;61637;47.760;-122.022;2024-01-07T08:04:01;101591.7;;;1.5;98.0
73422;BME280;61637;47.760;-122.022;2024-01-07T08:06:01;101591.7;;;1.6;98.0
73422;BME280;61637;47.760;-122.022;2024-01-07T08:08:01;101591.7;;;1.6;98.0
73422;BME280;61637;47.760;-122.022;2024-01-07T08:10:01;101591.7;;;1.5;98.0
73422;BME280;61637;47.760;-122.022;2024-01-07T08:12:01;101591.7;;;1.6;98.0
73422;BME280;61637;47.760;-122.022;2024-01-07T08:14:01;101591.7;;;1.6;98.0
73422;BME280;61637;47.760;-122.022;2024-01-07T08:16:01;101591.7;;;1.6;99.0
73422;BME280;61637;47.760;-122.022;2024-01-07T08:18:01;101591.7;;;1.6;99.0
73422;BME280;61637;47.760;-122.022;2024-01-07T08:20:01;101591.7;;;1.6;99.0
73422;BME280;61637;47.760;-122.022;2024-01-07T08:22:01;101253.06099999999;;;1.6;99.0
73422;BME280;61637;47.760;-122.022;2024-01-07T08:24:01;101591.7;;;1.7;99.0
73422;BME280;61637;47.760;-122.022;2024-01-07T08:26:01;101591.7;;;1.6;99.0
73422;BME280;61637;47.760;-122.022;2024-01-07T08:28:01;101591.7;;;1.6;98.0
73422;BME280;61637;47.760;-122.022;2024-01-07T08:30:01;101591.7;;;1.6;98.0
73422;BME280;61637;47.760;-122.022;2024-01-07T08:32:01;101591.7;;;1.7;98.0
73422;BME280;61637;47.760;-122.022;2024-01-07T08:34:01;101253.06099999999;;;1.7;98.0
73422;BME280;61637;47.760;-122.022;2024-01-07T08:36:01;101253.06099999999;;;1.7;98.0
73422;BME280;61637;47.760;-122.022;2024-01-07T08:38:01;101253.06099999999;;;1.7;98.0
73422;BME280;61637;47.760;-122.022;2024-01-07T08:40:01;101591.7;;;1.7;98.0
73422;BME280;61637;47.760;-122.022;2024-01-07T08:42:01;101253.06099999999;;;1.7;98.0
73422;BME280;61637;47.760;-122.022;2024-01-07T08:44:01;101591.7;;;1.7;98.0
73422;BME280;61637;47.760;-122.022;2024-01-07T08:46:01;101253.06099999999;;;1.7;98.0
73422;BME280;61637;47.760;-122.022;2024-01-07T08:48:01;101253.06099999999;;;1.7;98.0
73422;BME280;61637;47.760;-122.022;2024-01-07T08:50:01;101591.7;;;1.7;98.0
73422;BME280;61637;47.760;-122.022;2024-01-07T08:52:01;101253.06099999999;;;1.7;98.0
73422;BME280;61637;47.760;-122.022;2024-01-07T08:54:01;101591.7;;;1.7;98.0
73422;BME280;61637;47.760;-122.022;2024-01-07T08:56:01;101591.7;;;1.7;98.0
73422;BME280;61637;47.760;-122.022;2024-01-07T08:58:01;101591.7;;;1.7;98.0
73422;BME280;61637;47.760;-122.022;2024-01-07T09:00:01;101591.7;;;1.7;98.0
73422;BME280;61637;47.760;-122.022;2024-01-07T09:02:01;101591.7;;;1.7;98.0
73422;BME280;61637;47.760;-122.022;2024-01-07T09:04:01;101591.7;;;1.7;98.0
73422;BME280;61637;47.760;-122.022;2024-01-07T09:06:01;101591.7;;;1.7;98.0
73422;BME280;61637;47.760;-122.022;2024-01-07T09:08:01;101591.7;;;1.7;98.0
73422;BME280;61637;47.760;-122.022;2024-01-07T09:10:01;101591.7;;;1.7;98.0
73422;BME280;61637;47.760;-122.022;2024-01-07T09:12:01;101591.7;;;1.7;98.0
73422;BME280;61637;47.760;-122.022;2024-01-07T09:14:01;101591.7;;;1.7;98.0
73422;BME280;61637;47.760;-122.022;2024-01-07T09:16:01;101591.7;;;1.7;98.0
73422;BME280;61637;47.760;-122.022;2024-01-07T09:18:01;101591.7;;;1.7;98.0
73422;BME280;61637;47.760;-122.022;2024-01-07T09:20:01;101591.7;;;1.6;98.0
73422;BME280;61637;47.760;-122.022;2024-01-07T09:22:01;101591.7;;;1.7;98.0
73422;BME280;61637;47.760;-122.022;2024-01-07T09:24:01;101591.7;;;1.7;98.0
73422;BME280;61637;47.760;-122.022;2024-01-07T09:26:01;101591.7;;;1.6;98.0
73422;BME280;61637;47.760;-122.022;2024-01-07T09:28:01;101591.7;;;1.6;98.0
73422;BME280;61637;47.760;-122.022;2024-01-07T09:30:01;101591.7;;;1.6;98.0
73422;BME280;61637;47.760;-122.022;2024-01-07T09:32:01;101591.7;;;1.6;98.0